• Join FlightAware (Why Join?)
  • Login
  • US Flag 
 
05:54PM EST


 

Airport Tracker/Info


-or-


 

Live Flight TrackerFlight Track Log ✈ GJS3649 ✈ 29-Oct-2013 ✈ KORD - KSYR

Flight Track Log - Related Links

Times and Time Zones

All times are in EDT time to prevent confusion due to time zone crossing. See the GJS3649 flight status page for this flight to view local times or setup timezone preferences in your user account.

Time Position Orientation Groundspeed Altitude Reporting Facility
EDT Latitude Longitude Course Direction KTS MPH feet Rate Location/Type
09:01PM 42.0167 -87.9333 90° East 182 209 1,900  Level Chicago TRACON
09:02PM 42.0667 -87.8833 37° Northeast 246 283 4,000 2,520 Climbing Chicago TRACON
09:04PM 42.1453 -87.6933 61° Northeast 290 334 10,400 2,640 Climbing Chicago Center
09:05PM 42.1681 -87.5869 74° East 297 342 12,900 1,740 Climbing Chicago Center
09:06PM 42.0918 -87.1522 90° East  Level Estimated
09:06PM 42.1944 -87.4686 73° East 330 380 14,000  Level Chicago Center
09:07PM 42.2228 -87.3300 75° East 380 437 15,100 1,500 Climbing Chicago Center
09:08PM 42.2606 -87.1500 74° East 416 479 17,100 1,680 Climbing Chicago Center
09:09PM 42.2842 -86.9925 78° East 428 493 18,600 1,560 Climbing Chicago Center
09:10PM 42.2886 -86.8233 88° East 447 514 20,400 1,680 Climbing Chicago Center
09:11PM 42.2950 -86.6514 87° East 453 521 22,100 1,560 Climbing Chicago Center
09:12PM 42.3008 -86.4897 87° East 456 525 23,700 1,680 Climbing Chicago Center
09:13PM 42.3089 -86.2833 87° East 461 531 25,600 1,380 Climbing Chicago Center
09:14PM 42.3147 -86.1064 87° East 474 545 26,600 960 Climbing Chicago Center
09:15PM 42.3133 -85.9214 91° East 493 567 27,600 960 Climbing Chicago Center
09:16PM 42.3108 -85.7331 91° East 503 579 28,600 960 Climbing Chicago Center
09:17PM 42.3086 -85.5411 91° East 512 589 29,600 960 Climbing Chicago Center
09:18PM 42.3050 -85.3464 91° East 518 596 30,600 1,020 Climbing Chicago Center
09:19PM 42.3019 -85.1119 91° East 522 601 31,800 1,020 Climbing Chicago Center
09:20PM 42.2972 -84.9164 92° East 523 602 32,800 960 Climbing Chicago Center
09:21PM 42.2925 -84.7181 92° East 529 609 33,800 960 Climbing Chicago Center
09:22PM 42.2878 -84.5219 92° East 528 608 34,800 540 Climbing Chicago Center
09:23PM 42.3064 -84.3247 83° East 533 613 35,000 60 Climbing Chicago Center
09:24PM 42.3203 -84.1856 82° East 540 621 35,000  Level Cleveland Center
09:25PM 42.3439 -83.9772 81° East 558 642 35,000  Level Cleveland Center
09:26PM 42.3661 -83.7697 82° East 558 642 35,000  Level Cleveland Center
09:27PM 42.3914 -83.5375 82° East 556 640 35,000  Level Cleveland Center
09:28PM 42.4128 -83.3300 82° East 553 636 35,000  Level Cleveland Center
09:29PM 42.4319 -83.1389 82° East 552 635 35,000 180 Level Cleveland Center
09:30PM 42.4522 -82.9325 82° East 552 635 35,400 540 Climbing Cleveland Center
09:31PM 42.4772 -82.6839 82° East 555 639 36,200 720 Climbing Cleveland Center
09:32PM 42.4978 -82.4758 82° East 559 643 36,900 660 Climbing Cleveland Center
09:33PM 42.5178 -82.2678 83° East 559 643 37,600 660 Climbing Cleveland Center
09:34PM 42.5369 -82.0600 83° East 557 641 38,300 660 Climbing Cleveland Center
09:35PM 42.5564 -81.8542 83° East 554 638 39,000 300 Climbing Cleveland Center
09:36PM 42.5767 -81.6197 83° East 553 636 39,000  Level Cleveland Center
09:37PM 42.5958 -81.4058 83° East 561 646 39,000  Level Cleveland Center
09:38PM 42.6147 -81.1892 83° East 571 657 39,000  Level Cleveland Center
09:39PM 42.6333 -80.9750 83° East 567 652 39,000  Level Cleveland Center
09:40PM 42.6497 -80.7622 84° East 563 648 39,000  Level Cleveland Center
09:41PM 42.6672 -80.5547 83° East 552 635 39,000  Level Cleveland Center
09:43PM 42.6839 -80.3461 84° East 551 634 39,000  Level Cleveland Center
09:44PM 42.7000 -80.1378 84° East 549 632 39,000 -480 Level Cleveland Center
09:45PM 42.7167 -79.9072 84° East 555 639 38,100 -960 Descending Cleveland Center
09:46PM 42.7325 -79.6936 84° East 568 654 37,100 -1,020 Descending Cleveland Center
09:47PM 42.7478 -79.4831 84° East 559 643 36,100 -1,020 Descending Cleveland Center
09:48PM 42.7622 -79.2814 84° East 539 620 35,100 -1,020 Descending Cleveland Center
09:49PM 42.7756 -79.0736 85° East 549 632 34,100 -1,020 Descending Cleveland Center
09:50PM 42.7892 -78.8692 85° East 544 626 33,100 -1,020 Descending Cleveland Center
09:51PM 42.8011 -78.6708 85° East 530 610 32,100 -1,020 Descending Cleveland Center
09:52PM 42.8133 -78.4742 85° East 522 601 31,100 -1,080 Descending Cleveland Center
09:53PM 42.8292 -78.2789 84° East 517 595 30,000 -1,620 Descending Cleveland Center
09:54PM 42.8558 -78.0944 79° East 495 570 27,900 -2,580 Descending Cleveland Center
09:55PM 42.8861 -77.8797 79° East 477 549 24,800 -2,760 Descending Cleveland Center
09:56PM 42.9089 -77.7056 80° East 461 531 22,300 -2,460 Descending Cleveland Center
09:57PM 42.9322 -77.5339 79° East 457 526 19,800 -2,340 Descending Cleveland Center
09:58PM 42.9533 -77.3697 80° East 441 507 17,600 -2,340 Descending Cleveland Center
09:59PM 42.9739 -77.2103 80° East 427 491 15,100 -2,460 Descending Cleveland Center
10:00PM 42.9936 -77.0575 80° East 412 474 12,600 -1,920 Descending Cleveland Center
10:01PM 43.0117 -76.9156 80° East 385 443 11,200 -1,080 Descending Cleveland Center
10:02PM 43.0339 -76.7967 76° East 335 386 10,500 -1,200 Descending Cleveland Center
10:03PM 43.0683 -76.6719 69° East 312 359 8,800 -1,680 Descending Cleveland Center
10:04PM 43.0936 -76.5758 70° East 286 329 7,200 -1,620 Descending Boston Center
10:04PM 43.0947 -76.5706 74° East 292 336 7,100 -1,620 Descending Boston Center
10:05PM 43.0964 -76.4742 89° East 261 300 5,600 -1,620 Descending Boston Center
10:05PM 43.0961 -76.4697 95° East 272 313 5,500 -1,320 Descending Boston Center
10:06PM 43.0997 -76.3789 87° East 244 281 4,300 -1,320 Descending Boston Center
10:06PM 43.0986 -76.3761 119° Southeast 254 292 4,200 -1,200 Descending Boston Center
10:07PM 43.1033 -76.2956 85° East 221 254 3,100 -1,380 Descending Boston Center
10:07PM 43.1025 -76.2903 102° East 241 277 2,900 -1,140 Descending Boston Center
10:08PM 43.1050 -76.2231 87° East 185 213 2,000 -1,020 Descending Boston Center
10:08PM 43.1047 -76.2183 95° East 214 246 1,900 -960 Descending Boston Center
10:09PM 43.1056 -76.1706 89° East 121 139 1,100 -780 Descending Boston Center
10:09PM 43.1064 -76.1697 36° Northeast 160 184 1,100 -660 Level Boston Center
10:10PM 43.1083 -76.1208 87° East 138 159 400 -240 Descending Boston Center
10:12PM 43.1153 -76.1092 51° Northeast 44 51 400  Level Cleveland Center
10:13PM 43.1167 -76.1164 285° West 34 39 400  Level Cleveland Center